sensor_id;sensor_type;location;lat;lon;timestamp;pressure;altitude;pressure_sealevel;temperature;humidity
55675;BME280;41562;44.330;23.802;2023-01-26T00:01:52;101314.94;;;0.56;100.00
55675;BME280;41562;44.330;23.802;2023-01-26T00:04:20;101311.69;;;0.68;100.00
55675;BME280;41562;44.330;23.802;2023-01-26T00:07:06;101317.28;;;0.65;100.00
55675;BME280;41562;44.330;23.802;2023-01-26T00:09:33;101304.06;;;0.73;100.00
55675;BME280;41562;44.330;23.802;2023-01-26T00:12:00;101300.59;;;0.73;100.00
55675;BME280;41562;44.330;23.802;2023-01-26T00:14:27;101302.78;;;0.69;100.00
55675;BME280;41562;44.330;23.802;2023-01-26T00:16:55;101295.31;;;0.58;100.00
55675;BME280;41562;44.330;23.802;2023-01-26T00:19:33;101290.25;;;0.71;100.00
55675;BME280;41562;44.330;23.802;2023-01-26T00:22:05;101288.50;;;0.64;100.00
55675;BME280;41562;44.330;23.802;2023-01-26T00:24:32;101287.19;;;0.68;100.00
55675;BME280;41562;44.330;23.802;2023-01-26T00:26:59;101284.44;;;0.76;100.00
55675;BME280;41562;44.330;23.802;2023-01-26T00:29:29;101282.81;;;0.75;100.00
55675;BME280;41562;44.330;23.802;2023-01-26T00:31:56;101275.28;;;0.72;100.00
55675;BME280;41562;44.330;23.802;2023-01-26T00:34:26;101275.47;;;0.56;100.00
55675;BME280;41562;44.330;23.802;2023-01-26T00:36:55;101273.91;;;0.76;100.00
55675;BME280;41562;44.330;23.802;2023-01-26T00:39:22;101274.75;;;0.62;100.00
55675;BME280;41562;44.330;23.802;2023-01-26T00:41:50;101262.50;;;0.69;100.00
55675;BME280;41562;44.330;23.802;2023-01-26T00:44:19;101268.56;;;0.55;100.00
55675;BME280;41562;44.330;23.802;2023-01-26T00:46:46;101261.84;;;0.67;100.00
55675;BME280;41562;44.330;23.802;2023-01-26T00:49:13;101261.31;;;0.86;100.00
55675;BME280;41562;44.330;23.802;2023-01-26T00:51:42;101259.75;;;0.77;100.00
55675;BME280;41562;44.330;23.802;2023-01-26T00:54:09;101267.81;;;0.46;100.00
55675;BME280;41562;44.330;23.802;2023-01-26T00:56:38;101264.56;;;0.59;100.00
55675;BME280;41562;44.330;23.802;2023-01-26T00:59:05;101260.22;;;0.66;100.00
55675;BME280;41562;44.330;23.802;2023-01-26T01:01:33;101250.16;;;0.55;100.00
55675;BME280;41562;44.330;23.802;2023-01-26T01:04:00;101251.31;;;0.52;100.00
55675;BME280;41562;44.330;23.802;2023-01-26T01:06:30;101258.91;;;0.32;100.00
55675;BME280;41562;44.330;23.802;2023-01-26T01:09:13;101260.94;;;0.60;100.00
55675;BME280;41562;44.330;23.802;2023-01-26T01:11:41;101246.78;;;0.61;100.00
55675;BME280;41562;44.330;23.802;2023-01-26T01:14:12;101244.44;;;0.66;100.00
55675;BME280;41562;44.330;23.802;2023-01-26T01:16:40;101260.22;;;0.66;100.00
55675;BME280;41562;44.330;23.802;2023-01-26T01:19:12;101268.56;;;0.55;100.00
55675;BME280;41562;44.330;23.802;2023-01-26T01:21:41;101258.00;;;0.40;100.00
55675;BME280;41562;44.330;23.802;2023-01-26T01:24:08;101266.28;;;0.37;100.00
55675;BME280;41562;44.330;23.802;2023-01-26T01:26:37;101261.13;;;0.58;100.00
55675;BME280;41562;44.330;23.802;2023-01-26T01:29:12;101257.19;;;0.39;100.00
55675;BME280;41562;44.330;23.802;2023-01-26T01:31:41;101245.59;;;0.63;100.00
55675;BME280;41562;44.330;23.802;2023-01-26T01:34:09;101244.22;;;0.53;100.00
55675;BME280;41562;44.330;23.802;2023-01-26T01:36:37;101253.03;;;0.45;100.00
55675;BME280;41562;44.330;23.802;2023-01-26T01:39:04;101247.16;;;0.43;100.00
55675;BME280;41562;44.330;23.802;2023-01-26T01:41:34;101237.91;;;0.62;100.00
55675;BME280;41562;44.330;23.802;2023-01-26T01:44:14;101239.59;;;0.40;100.00
55675;BME280;41562;44.330;23.802;2023-01-26T01:46:48;101239.25;;;0.43;100.00
55675;BME280;41562;44.330;23.802;2023-01-26T01:49:36;101234.50;;;0.38;100.00
55675;BME280;41562;44.330;23.802;2023-01-26T01:52:07;101244.22;;;0.53;100.00
55675;BME280;41562;44.330;23.802;2023-01-26T01:54:43;101234.34;;;0.40;100.00
55675;BME280;41562;44.330;23.802;2023-01-26T01:57:16;101250.72;;;0.27;100.00
55675;BME280;41562;44.330;23.802;2023-01-26T02:00:06;101242.13;;;0.33;100.00
55675;BME280;41562;44.330;23.802;2023-01-26T02:02:40;101233.06;;;0.36;100.00
55675;BME280;41562;44.330;23.802;2023-01-26T02:05:23;101230.16;;;0.46;100.00
55675;BME280;41562;44.330;23.802;2023-01-26T02:07:59;101224.38;;;0.50;100.00
55675;BME280;41562;44.330;23.802;2023-01-26T02:10:27;101224.19;;;0.52;100.00
55675;BME280;41562;44.330;23.802;2023-01-26T02:12:59;101225.16;;;0.51;100.00
55675;BME280;41562;44.330;23.802;2023-01-26T02:15:29;101208.88;;;0.55;100.00
55675;BME280;41562;44.330;23.802;2023-01-26T02:18:00;101198.88;;;0.51;100.00
55675;BME280;41562;44.330;23.802;2023-01-26T02:21:10;101186.44;;;0.45;100.00
55675;BME280;41562;44.330;23.802;2023-01-26T02:26:25;101178.28;;;0.39;100.00
55675;BME280;41562;44.330;23.802;2023-01-26T02:28:54;101179.66;;;0.35;100.00
55675;BME280;41562;44.330;23.802;2023-01-26T02:31:24;101178.72;;;0.28;100.00
55675;BME280;41562;44.330;23.802;2023-01-26T02:33:52;101164.03;;;0.34;100.00
55675;BME280;41562;44.330;23.802;2023-01-26T02:36:22;101159.25;;;0.23;100.00
55675;BME280;41562;44.330;23.802;2023-01-26T02:39:14;101152.09;;;0.31;100.00
55675;BME280;41562;44.330;23.802;2023-01-26T02:41:45;101147.16;;;0.58;100.00
55675;BME280;41562;44.330;23.802;2023-01-26T02:44:19;101154.13;;;0.51;100.00
55675;BME280;41562;44.330;23.802;2023-01-26T02:46:46;101145.19;;;0.30;100.00
55675;BME280;41562;44.330;23.802;2023-01-26T02:49:13;101142.63;;;0.52;100.00
55675;BME280;41562;44.330;23.802;2023-01-26T02:51:43;101134.63;;;0.60;100.00
55675;BME280;41562;44.330;23.802;2023-01-26T02:54:10;101131.09;;;0.53;100.00
55675;BME280;41562;44.330;23.802;2023-01-26T02:56:41;101140.09;;;0.44;100.00
55675;BME280;41562;44.330;23.802;2023-01-26T02:59:08;101140.38;;;0.49;100.00
55675;BME280;41562;44.330;23.802;2023-01-26T03:01:39;101146.53;;;0.56;100.00
55675;BME280;41562;44.330;23.802;2023-01-26T03:04:06;101145.72;;;0.40;100.00
55675;BME280;41562;44.330;23.802;2023-01-26T03:06:33;101151.78;;;0.26;100.00
55675;BME280;41562;44.330;23.802;2023-01-26T03:09:00;101134.75;;;0.22;100.00
55675;BME280;41562;44.330;23.802;2023-01-26T03:11:35;101135.66;;;0.29;100.00
55675;BME280;41562;44.330;23.802;2023-01-26T03:14:02;101133.19;;;0.13;100.00
55675;BME280;41562;44.330;23.802;2023-01-26T03:16:29;101148.16;;;0.27;100.00
55675;BME280;41562;44.330;23.802;2023-01-26T03:18:58;101144.81;;;0.33;100.00
55675;BME280;41562;44.330;23.802;2023-01-26T03:21:27;101132.31;;;0.35;100.00
55675;BME280;41562;44.330;23.802;2023-01-26T03:23:54;101129.50;;;0.37;100.00
55675;BME280;41562;44.330;23.802;2023-01-26T03:26:31;101132.47;;;0.34;100.00
55675;BME280;41562;44.330;23.802;2023-01-26T03:29:04;101129.19;;;0.32;100.00
55675;BME280;41562;44.330;23.802;2023-01-26T03:31:39;101128.31;;;0.39;100.00
55675;BME280;41562;44.330;23.802;2023-01-26T03:34:06;101123.84;;;0.40;100.00
55675;BME280;41562;44.330;23.802;2023-01-26T03:36:33;101133.81;;;0.45;100.00
55675;BME280;41562;44.330;23.802;2023-01-26T03:39:00;101118.50;;;0.33;100.00
55675;BME280;41562;44.330;23.802;2023-01-26T03:41:29;101127.47;;;0.68;100.00
55675;BME280;41562;44.330;23.802;2023-01-26T03:43:59;101120.41;;;0.54;100.00
55675;BME280;41562;44.330;23.802;2023-01-26T03:46:26;101117.78;;;0.54;100.00
55675;BME280;41562;44.330;23.802;2023-01-26T03:49:01;101111.34;;;0.57;100.00
55675;BME280;41562;44.330;23.802;2023-01-26T03:51:30;101103.06;;;0.60;100.00
55675;BME280;41562;44.330;23.802;2023-01-26T03:53:59;101102.81;;;0.55;100.00
55675;BME280;41562;44.330;23.802;2023-01-26T03:56:27;101101.56;;;0.36;100.00
55675;BME280;41562;44.330;23.802;2023-01-26T03:58:59;101101.00;;;0.55;100.00
55675;BME280;41562;44.330;23.802;2023-01-26T04:01:27;101102.53;;;0.50;100.00
55675;BME280;41562;44.330;23.802;2023-01-26T04:03:55;101094.00;;;0.48;100.00
55675;BME280;41562;44.330;23.802;2023-01-26T04:06:25;101086.69;;;0.43;100.00
55675;BME280;41562;44.330;23.802;2023-01-26T04:08:52;101080.47;;;0.51;100.00
55675;BME280;41562;44.330;23.802;2023-01-26T04:11:23;101088.22;;;0.37;100.00
55675;BME280;41562;44.330;23.802;2023-01-26T04:13:50;101086.75;;;0.50;100.00
55675;BME280;41562;44.330;23.802;2023-01-26T04:16:19;101091.22;;;0.49;100.00
55675;BME280;41562;44.330;23.802;2023-01-26T04:18:49;101098.19;;;0.27;100.00
55675;BME280;41562;44.330;23.802;2023-01-26T04:21:19;101089.09;;;2.89;100.00
55675;BME280;41562;44.330;23.802;2023-01-26T04:23:47;101080.94;;;5.11;88.44
55675;BME280;41562;44.330;23.802;2023-01-26T04:26:16;101085.22;;;2.71;88.81
55675;BME280;41562;44.330;23.802;2023-01-26T04:28:43;101085.16;;;2.58;92.83
55675;BME280;41562;44.330;23.802;2023-01-26T04:31:14;101083.66;;;3.10;94.74
55675;BME280;41562;44.330;23.802;2023-01-26T04:33:42;101068.81;;;3.88;98.10
55675;BME280;41562;44.330;23.802;2023-01-26T04:36:09;101069.28;;;4.42;92.63
55675;BME280;41562;44.330;23.802;2023-01-26T04:38:38;101058.66;;;3.85;100.00
55675;BME280;41562;44.330;23.802;2023-01-26T04:41:08;101061.72;;;3.62;90.87
55675;BME280;41562;44.330;23.802;2023-01-26T04:43:35;101056.84;;;3.66;92.37
55675;BME280;41562;44.330;23.802;2023-01-26T04:46:06;101059.09;;;3.16;97.93
55675;BME280;41562;44.330;23.802;2023-01-26T04:48:39;101071.25;;;1.95;94.66
55675;BME280;41562;44.330;23.802;2023-01-26T04:51:11;101071.56;;;2.61;91.33
55675;BME280;41562;44.330;23.802;2023-01-26T04:53:39;101074.75;;;2.09;94.48
55675;BME280;41562;44.330;23.802;2023-01-26T04:56:13;101067.38;;;1.36;98.77
55675;BME280;41562;44.330;23.802;2023-01-26T04:58:44;101060.13;;;1.16;99.50
55675;BME280;41562;44.330;23.802;2023-01-26T05:01:14;101067.34;;;0.87;100.00
55675;BME280;41562;44.330;23.802;2023-01-26T05:03:47;101066.75;;;0.91;100.00
55675;BME280;41562;44.330;23.802;2023-01-26T05:06:15;101053.09;;;0.81;100.00
55675;BME280;41562;44.330;23.802;2023-01-26T05:08:43;101052.72;;;0.63;100.00
55675;BME280;41562;44.330;23.802;2023-01-26T05:11:11;101040.91;;;0.59;100.00
55675;BME280;41562;44.330;23.802;2023-01-26T05:13:42;101047.44;;;0.63;100.00
55675;BME280;41562;44.330;23.802;2023-01-26T05:16:10;101037.66;;;0.78;100.00
55675;BME280;41562;44.330;23.802;2023-01-26T05:18:37;101040.56;;;0.83;100.00
55675;BME280;41562;44.330;23.802;2023-01-26T05:21:07;101036.78;;;0.71;100.00
55675;BME280;41562;44.330;23.802;2023-01-26T05:23:35;101032.09;;;0.66;100.00
55675;BME280;41562;44.330;23.802;2023-01-26T05:26:04;101030.22;;;0.60;100.00
55675;BME280;41562;44.330;23.802;2023-01-26T05:28:33;101013.00;;;0.79;100.00
55675;BME280;41562;44.330;23.802;2023-01-26T05:31:05;101019.06;;;0.79;100.00
55675;BME280;41562;44.330;23.802;2023-01-26T05:33:34;101023.38;;;0.66;100.00
55675;BME280;41562;44.330;23.802;2023-01-26T05:36:06;101021.00;;;0.71;100.00
55675;BME280;41562;44.330;23.802;2023-01-26T05:38:41;101020.09;;;0.64;100.00
55675;BME280;41562;44.330;23.802;2023-01-26T05:41:09;101011.00;;;0.45;100.00
55675;BME280;41562;44.330;23.802;2023-01-26T05:43:39;101014.84;;;0.64;100.00
55675;BME280;41562;44.330;23.802;2023-01-26T05:46:06;101021.13;;;0.63;100.00
55675;BME280;41562;44.330;23.802;2023-01-26T05:48:33;101014.31;;;0.68;100.00
55675;BME280;41562;44.330;23.802;2023-01-26T05:51:00;101016.47;;;0.65;100.00
55675;BME280;41562;44.330;23.802;2023-01-26T05:53:30;101023.09;;;0.75;100.00
55675;BME280;41562;44.330;23.802;2023-01-26T05:55:57;101014.38;;;0.75;100.00
55675;BME280;41562;44.330;23.802;2023-01-26T05:58:24;101018.03;;;0.59;100.00
55675;BME280;41562;44.330;23.802;2023-01-26T06:00:56;101023.84;;;0.69;100.00
55675;BME280;41562;44.330;23.802;2023-01-26T06:03:25;101025.50;;;0.77;100.00
55675;BME280;41562;44.330;23.802;2023-01-26T06:05:57;101024.94;;;0.60;100.00
55675;BME280;41562;44.330;23.802;2023-01-26T06:08:34;101013.03;;;0.43;100.00
55675;BME280;41562;44.330;23.802;2023-01-26T06:11:06;101026.75;;;0.60;100.00
55675;BME280;41562;44.330;23.802;2023-01-26T06:13:40;101021.22;;;0.69;100.00
55675;BME280;41562;44.330;23.802;2023-01-26T06:16:10;101022.38;;;0.67;100.00
55675;BME280;41562;44.330;23.802;2023-01-26T06:18:39;101025.09;;;0.73;100.00
55675;BME280;41562;44.330;23.802;2023-01-26T06:21:13;101013.06;;;0.86;100.00
55675;BME280;41562;44.330;23.802;2023-01-26T06:23:41;101021.13;;;0.84;100.00
55675;BME280;41562;44.330;23.802;2023-01-26T06:26:09;101020.84;;;0.94;100.00
55675;BME280;41562;44.330;23.802;2023-01-26T06:28:42;101031.22;;;0.80;100.00
55675;BME280;41562;44.330;23.802;2023-01-26T06:31:10;101028.09;;;0.92;100.00
55675;BME280;41562;44.330;23.802;2023-01-26T06:33:39;101029.88;;;0.70;100.00
55675;BME280;41562;44.330;23.802;2023-01-26T06:36:10;101014.97;;;0.77;100.00
55675;BME280;41562;44.330;23.802;2023-01-26T06:38:45;101028.66;;;0.87;100.00
55675;BME280;41562;44.330;23.802;2023-01-26T06:41:14;101031.38;;;0.94;100.00
55675;BME280;41562;44.330;23.802;2023-01-26T06:43:46;101021.31;;;0.82;100.00
55675;BME280;41562;44.330;23.802;2023-01-26T06:46:15;101024.28;;;0.73;100.00
55675;BME280;41562;44.330;23.802;2023-01-26T06:48:42;101018.69;;;0.82;100.00
55675;BME280;41562;44.330;23.802;2023-01-26T06:53:53;101013.06;;;0.86;100.00
55675;BME280;41562;44.330;23.802;2023-01-26T06:56:24;101024.75;;;0.62;100.00
55675;BME280;41562;44.330;23.802;2023-01-26T06:58:53;101026.41;;;0.63;100.00
55675;BME280;41562;44.330;23.802;2023-01-26T07:01:22;101016.78;;;0.76;100.00
55675;BME280;41562;44.330;23.802;2023-01-26T07:03:54;101017.63;;;0.98;100.00
55675;BME280;41562;44.330;23.802;2023-01-26T07:06:26;101007.78;;;0.86;100.00
55675;BME280;41562;44.330;23.802;2023-01-26T07:08:53;100992.75;;;0.79;100.00
55675;BME280;41562;44.330;23.802;2023-01-26T07:11:20;101007.78;;;0.86;100.00
55675;BME280;41562;44.330;23.802;2023-01-26T07:13:48;101001.13;;;0.90;100.00
55675;BME280;41562;44.330;23.802;2023-01-26T07:16:17;101000.16;;;0.69;100.00
55675;BME280;41562;44.330;23.802;2023-01-26T07:18:44;100995.31;;;0.73;100.00
55675;BME280;41562;44.330;23.802;2023-01-26T07:21:15;100995.56;;;0.78;100.00
55675;BME280;41562;44.330;23.802;2023-01-26T07:23:45;100984.41;;;0.76;100.00
55675;BME280;41562;44.330;23.802;2023-01-26T07:26:13;100984.03;;;0.79;99.95
55675;BME280;41562;44.330;23.802;2023-01-26T07:28:40;100978.53;;;0.74;99.57
55675;BME280;41562;44.330;23.802;2023-01-26T07:31:10;100975.91;;;0.74;99.90
55675;BME280;41562;44.330;23.802;2023-01-26T07:33:43;100969.00;;;0.94;100.00
55675;BME280;41562;44.330;23.802;2023-01-26T07:36:12;100962.75;;;0.74;100.00
55675;BME280;41562;44.330;23.802;2023-01-26T07:38:40;100967.59;;;0.77;99.98
55675;BME280;41562;44.330;23.802;2023-01-26T07:41:13;100966.66;;;0.85;100.00
55675;BME280;41562;44.330;23.802;2023-01-26T07:43:40;100957.31;;;1.03;100.00
55675;BME280;41562;44.330;23.802;2023-01-26T07:46:10;100961.16;;;0.79;97.79
55675;BME280;41562;44.330;23.802;2023-01-26T07:48:43;100952.09;;;0.61;98.77
55675;BME280;41562;44.330;23.802;2023-01-26T07:51:10;100958.28;;;0.53;99.41
55675;BME280;41562;44.330;23.802;2023-01-26T07:53:38;100952.28;;;0.80;100.00
55675;BME280;41562;44.330;23.802;2023-01-26T07:58:38;100955.97;;;0.86;98.35
55675;BME280;41562;44.330;23.802;2023-01-26T08:01:11;100957.38;;;0.89;98.75
55675;BME280;41562;44.330;23.802;2023-01-26T08:03:42;100951.66;;;1.06;100.00
55675;BME280;41562;44.330;23.802;2023-01-26T08:06:10;100957.69;;;1.00;99.10
55675;BME280;41562;44.330;23.802;2023-01-26T08:08:41;100952.38;;;0.94;98.55
55675;BME280;41562;44.330;23.802;2023-01-26T08:11:10;100945.78;;;0.83;98.89
55675;BME280;41562;44.330;23.802;2023-01-26T08:13:39;100942.72;;;1.01;100.00
55675;BME280;41562;44.330;23.802;2023-01-26T08:16:10;100943.88;;;0.70;98.88
55675;BME280;41562;44.330;23.802;2023-01-26T08:18:40;100945.13;;;0.74;99.62
55675;BME280;41562;44.330;23.802;2023-01-26T08:21:10;100944.50;;;0.72;99.67
55675;BME280;41562;44.330;23.802;2023-01-26T08:23:38;100951.44;;;0.80;100.00
55675;BME280;41562;44.330;23.802;2023-01-26T08:26:08;100949.34;;;0.69;99.95
55675;BME280;41562;44.330;23.802;2023-01-26T08:28:42;100950.41;;;0.74;99.28
55675;BME280;41562;44.330;23.802;2023-01-26T08:31:16;100948.22;;;0.57;100.00
55675;BME280;41562;44.330;23.802;2023-01-26T08:33:43;100951.88;;;0.84;100.00
55675;BME280;41562;44.330;23.802;2023-01-26T08:36:13;100950.06;;;0.84;100.00
55675;BME280;41562;44.330;23.802;2023-01-26T08:38:41;100951.94;;;0.90;99.03
55675;BME280;41562;44.330;23.802;2023-01-26T08:41:14;100949.88;;;0.86;100.00
55675;BME280;41562;44.330;23.802;2023-01-26T08:43:41;100947.44;;;0.84;100.00
55675;BME280;41562;44.330;23.802;2023-01-26T08:46:14;100947.16;;;1.00;99.17
55675;BME280;41562;44.330;23.802;2023-01-26T08:48:45;100938.94;;;0.82;100.00
55675;BME280;41562;44.330;23.802;2023-01-26T08:51:14;100936.84;;;0.77;100.00
55675;BME280;41562;44.330;23.802;2023-01-26T08:53:45;100932.75;;;0.96;100.00
55675;BME280;41562;44.330;23.802;2023-01-26T08:56:18;100930.88;;;0.90;100.00
55675;BME280;41562;44.330;23.802;2023-01-26T08:58:48;100926.44;;;0.91;99.99
55675;BME280;41562;44.330;23.802;2023-01-26T09:01:26;100920.84;;;1.00;99.88
55675;BME280;41562;44.330;23.802;2023-01-26T09:03:56;100920.06;;;1.06;100.00
55675;BME280;41562;44.330;23.802;2023-01-26T09:06:27;100912.72;;;1.02;100.00
55675;BME280;41562;44.330;23.802;2023-01-26T09:08:55;100920.41;;;0.97;100.00
55675;BME280;41562;44.330;23.802;2023-01-26T09:11:22;100910.72;;;0.76;100.00
55675;BME280;41562;44.330;23.802;2023-01-26T09:13:50;100911.44;;;0.91;100.00
55675;BME280;41562;44.330;23.802;2023-01-26T09:16:19;100911.91;;;0.95;100.00
55675;BME280;41562;44.330;23.802;2023-01-26T09:18:50;100908.13;;;0.82;100.00
55675;BME280;41562;44.330;23.802;2023-01-26T09:21:19;100903.25;;;0.79;100.00
55675;BME280;41562;44.330;23.802;2023-01-26T09:23:49;100911.25;;;0.93;100.00
55675;BME280;41562;44.330;23.802;2023-01-26T09:26:20;100903.31;;;0.86;100.00
55675;BME280;41562;44.330;23.802;2023-01-26T09:28:50;100903.66;;;1.04;100.00
55675;BME280;41562;44.330;23.802;2023-01-26T09:31:20;100894.19;;;0.89;100.00
55675;BME280;41562;44.330;23.802;2023-01-26T09:33:49;100888.03;;;1.03;100.00
55675;BME280;41562;44.330;23.802;2023-01-26T09:36:16;100878.22;;;0.90;100.00
55675;BME280;41562;44.330;23.802;2023-01-26T09:38:59;100874.59;;;0.91;100.00
55675;BME280;41562;44.330;23.802;2023-01-26T09:41:46;100867.38;;;1.00;100.00
55675;BME280;41562;44.330;23.802;2023-01-26T09:44:25;100868.66;;;1.10;100.00
55675;BME280;41562;44.330;23.802;2023-01-26T09:47:17;100863.66;;;0.88;100.00
55675;BME280;41562;44.330;23.802;2023-01-26T09:49:48;100857.53;;;0.80;100.00
55675;BME280;41562;44.330;23.802;2023-01-26T09:52:37;100848.63;;;0.82;100.00
55675;BME280;41562;44.330;23.802;2023-01-26T09:55:18;100848.34;;;1.04;100.00
55675;BME280;41562;44.330;23.802;2023-01-26T09:58:11;100839.44;;;1.05;100.00
55675;BME280;41562;44.330;23.802;2023-01-26T10:00:51;100841.13;;;1.13;100.00
55675;BME280;41562;44.330;23.802;2023-01-26T10:03:42;100824.91;;;1.16;100.00
55675;BME280;41562;44.330;23.802;2023-01-26T10:06:22;100821.41;;;1.02;100.00
55675;BME280;41562;44.330;23.802;2023-01-26T10:08:51;100811.38;;;1.19;100.00
55675;BME280;41562;44.330;23.802;2023-01-26T10:13:58;100810.25;;;1.41;100.00
55675;BME280;41562;44.330;23.802;2023-01-26T10:16:32;100808.00;;;1.38;100.00
55675;BME280;41562;44.330;23.802;2023-01-26T10:19:05;100798.69;;;1.42;100.00
55675;BME280;41562;44.330;23.802;2023-01-26T10:21:41;100779.63;;;1.40;100.00
55675;BME280;41562;44.330;23.802;2023-01-26T10:24:10;100779.19;;;1.24;100.00
55675;BME280;41562;44.330;23.802;2023-01-26T10:26:38;100771.53;;;1.42;100.00
55675;BME280;41562;44.330;23.802;2023-01-26T10:29:05;100774.88;;;1.16;100.00
55675;BME280;41562;44.330;23.802;2023-01-26T10:31:33;100777.91;;;1.13;100.00
55675;BME280;41562;44.330;23.802;2023-01-26T10:34:22;100764.88;;;1.52;100.00
55675;BME280;41562;44.330;23.802;2023-01-26T10:37:20;100759.00;;;1.44;100.00
55675;BME280;41562;44.330;23.802;2023-01-26T10:42:30;100744.88;;;1.97;99.83
55675;BME280;41562;44.330;23.802;2023-01-26T10:45:00;100720.13;;;1.85;100.00
55675;BME280;41562;44.330;23.802;2023-01-26T10:47:34;100718.84;;;1.42;100.00
55675;BME280;41562;44.330;23.802;2023-01-26T10:50:38;100715.81;;;3.14;99.78
55675;BME280;41562;44.330;23.802;2023-01-26T10:53:17;100716.28;;;3.99;88.92
55675;BME280;41562;44.330;23.802;2023-01-26T10:56:11;100716.22;;;2.47;95.75
55675;BME280;41562;44.330;23.802;2023-01-26T10:58:51;100713.22;;;1.97;97.74
55675;BME280;41562;44.330;23.802;2023-01-26T11:01:21;100714.84;;;1.85;99.45
55675;BME280;41562;44.330;23.802;2023-01-26T11:04:16;100697.63;;;1.89;100.00
55675;BME280;41562;44.330;23.802;2023-01-26T11:07:24;100692.34;;;1.63;100.00
55675;BME280;41562;44.330;23.802;2023-01-26T11:09:55;100692.50;;;1.42;100.00
55675;BME280;41562;44.330;23.802;2023-01-26T11:12:24;100685.22;;;1.44;100.00
55675;BME280;41562;44.330;23.802;2023-01-26T11:15:05;100682.81;;;1.62;100.00
55675;BME280;41562;44.330;23.802;2023-01-26T11:17:59;100670.16;;;1.11;100.00
55675;BME280;41562;44.330;23.802;2023-01-26T11:20:55;100664.91;;;1.25;100.00
55675;BME280;41562;44.330;23.802;2023-01-26T11:23:57;100666.16;;;1.42;100.00
55675;BME280;41562;44.330;23.802;2023-01-26T11:34:59;100680.72;;;1.25;100.00
55675;BME280;41562;44.330;23.802;2023-01-26T11:37:41;100679.91;;;1.24;100.00
55675;BME280;41562;44.330;23.802;2023-01-26T11:40:25;100667.09;;;1.14;100.00
55675;BME280;41562;44.330;23.802;2023-01-26T11:43:25;100659.03;;;1.23;100.00
55675;BME280;41562;44.330;23.802;2023-01-26T11:54:54;100646.25;;;1.13;100.00
55675;BME280;41562;44.330;23.802;2023-01-26T11:57:27;100637.34;;;1.07;100.00
55675;BME280;41562;44.330;23.802;2023-01-26T12:00:12;100625.81;;;1.21;100.00
55675;BME280;41562;44.330;23.802;2023-01-26T12:03:02;100618.31;;;1.25;100.00
55675;BME280;41562;44.330;23.802;2023-01-26T12:05:55;100613.06;;;1.38;100.00
55675;BME280;41562;44.330;23.802;2023-01-26T12:08:46;100605.34;;;1.17;100.00
55675;BME280;41562;44.330;23.802;2023-01-26T12:12:08;100611.44;;;1.24;100.00
55675;BME280;41562;44.330;23.802;2023-01-26T12:17:26;100609.72;;;0.90;100.00
55675;BME280;41562;44.330;23.802;2023-01-26T12:22:36;100603.28;;;0.99;100.00
55675;BME280;41562;44.330;23.802;2023-01-26T12:28:00;100606.50;;;1.01;100.00
55675;BME280;41562;44.330;23.802;2023-01-26T12:33:15;100599.88;;;1.12;100.00
55675;BME280;41562;44.330;23.802;2023-01-26T12:38:44;100590.06;;;0.79;100.00
55675;BME280;41562;44.330;23.802;2023-01-26T12:41:41;100593.53;;;0.80;100.00
55675;BME280;41562;44.330;23.802;2023-01-26T12:47:20;100588.31;;;1.00;100.00
55675;BME280;41562;44.330;23.802;2023-01-26T12:49:59;100594.97;;;1.02;100.00
55675;BME280;41562;44.330;23.802;2023-01-26T12:58:00;100581.00;;;1.08;100.00
55675;BME280;41562;44.330;23.802;2023-01-26T13:00:31;100573.31;;;1.00;100.00
55675;BME280;41562;44.330;23.802;2023-01-26T13:03:05;100570.47;;;1.08;100.00
55675;BME280;41562;44.330;23.802;2023-01-26T13:06:17;100570.13;;;1.31;100.00
55675;BME280;41562;44.330;23.802;2023-01-26T13:08:49;100560.16;;;1.27;100.00
55675;BME280;41562;44.330;23.802;2023-01-26T13:11:53;100553.69;;;1.29;100.00
55675;BME280;41562;44.330;23.802;2023-01-26T13:16:51;100550.44;;;1.34;100.00
55675;BME280;41562;44.330;23.802;2023-01-26T13:24:57;100544.59;;;1.32;100.00
55675;BME280;41562;44.330;23.802;2023-01-26T13:27:53;100525.13;;;1.33;100.00
55675;BME280;41562;44.330;23.802;2023-01-26T13:33:28;100517.81;;;1.54;100.00
55675;BME280;41562;44.330;23.802;2023-01-26T13:36:02;100517.44;;;1.38;100.00
55675;BME280;41562;44.330;23.802;2023-01-26T13:38:39;100509.31;;;1.39;100.00
55675;BME280;41562;44.330;23.802;2023-01-26T13:41:17;100511.34;;;1.31;100.00
55675;BME280;41562;44.330;23.802;2023-01-26T13:43:56;100509.50;;;1.51;100.00
55675;BME280;41562;44.330;23.802;2023-01-26T13:46:51;100508.28;;;1.47;100.00
55675;BME280;41562;44.330;23.802;2023-01-26T13:49:38;100501.00;;;1.29;100.00
55675;BME280;41562;44.330;23.802;2023-01-26T13:52:23;100503.63;;;1.42;100.00
55675;BME280;41562;44.330;23.802;2023-01-26T13:54:54;100501.19;;;1.41;100.00
55675;BME280;41562;44.330;23.802;2023-01-26T13:57:27;100497.16;;;1.38;100.00
55675;BME280;41562;44.330;23.802;2023-01-26T13:59:57;100497.56;;;1.35;100.00
55675;BME280;41562;44.330;23.802;2023-01-26T14:04:55;100493.50;;;1.46;100.00
55675;BME280;41562;44.330;23.802;2023-01-26T14:07:38;100490.66;;;1.34;100.00
55675;BME280;41562;44.330;23.802;2023-01-26T14:10:07;100489.84;;;1.34;100.00
55675;BME280;41562;44.330;23.802;2023-01-26T14:12:46;100482.38;;;1.31;100.00
55675;BME280;41562;44.330;23.802;2023-01-26T14:15:27;100476.31;;;1.24;100.00
55675;BME280;41562;44.330;23.802;2023-01-26T14:18:05;100482.78;;;1.28;100.00